Aviation Digital Data Service (ADDS)

Output produced by TAFs form (0210 UTC 22 September 2014)
found at http://aviationweather.gov/adds/tafs/
 
KGJT 212339Z 2200/2224 29015G25KT P6SM VCTS SCT060 BKN090CB 
     TEMPO 2200/2202 VRB20G30KT 3SM SHRA BR SCT040 BKN060 
     FM220200 14012G25KT P6SM VCTS SCT050CB BKN100 
     FM220600 08011KT P6SM VCSH SCT040 BKN080 
     FM221200 11008KT P6SM BKN200 
     FM221900 23008KT P6SM SCT090 SCT200